Time;durP1;ratioP1;P1;durP2;ratioP2;P2;SDS_P1;SDS_P2;PMS_P1;PMS_P2;Temp;Humidity;BMP_temperature;BMP_pressure;BME280_temperature;BME280_humidity;BME280_pressure;Samples;Min_cycle;Max_cycle;Signal;HPM_P1;HPM_P2
2023/09/01 00:00:09;;;;;;;13.65;4.75;;;13.20;99.90;;;;;;5029016;28;20187;-71
2023/09/01 00:02:35;;;;;;;11.93;4.65;;;13.20;99.90;;;;;;5031178;28;20697;-72
2023/09/01 00:05:07;;;;;;;10.88;5.00;;;13.20;99.90;;;;;;5027710;28;20192;-71
2023/09/01 00:07:33;;;;;;;10.45;5.10;;;13.20;99.90;;;;;;5031539;28;20664;-71
2023/09/01 00:09:59;;;;;;;8.70;4.75;;;13.20;99.90;;;;;;5027858;28;20691;-72
2023/09/01 00:12:26;;;;;;;10.90;4.93;;;13.20;99.90;;;;;;5031447;28;20180;-72
2023/09/01 00:14:52;;;;;;;10.55;4.32;;;13.20;99.90;;;;;;5026477;28;20220;-70
2023/09/01 00:17:18;;;;;;;9.23;3.83;;;13.10;99.90;;;;;;5032398;28;20188;-72
2023/09/01 00:19:44;;;;;;;7.97;3.92;;;13.10;99.90;;;;;;5028900;28;20230;-72
2023/09/01 00:22:10;;;;;;;12.18;3.63;;;13.10;99.90;;;;;;5033623;28;20198;-72
2023/09/01 00:24:37;;;;;;;7.80;4.00;;;13.10;99.90;;;;;;5030511;28;20195;-71
2023/09/01 00:27:03;;;;;;;8.38;3.83;;;13.20;99.90;;;;;;5032487;28;20305;-71
2023/09/01 00:29:33;;;;;;;9.75;4.47;;;13.20;99.90;;;;;;5046867;28;20204;-71
2023/09/01 00:31:59;;;;;;;12.23;6.40;;;13.20;99.90;;;;;;5032613;28;20203;-72
2023/09/01 00:34:25;;;;;;;25.60;12.43;;;13.20;99.90;;;;;;5030547;28;20208;-71
2023/09/01 00:36:52;;;;;;;18.38;12.65;;;13.20;99.90;;;;;;5048592;28;20246;-75
2023/09/01 00:39:18;;;;;;;16.13;9.90;;;13.20;99.90;;;;;;5027386;28;20220;-72
2023/09/01 00:41:44;;;;;;;11.10;5.40;;;13.20;99.90;;;;;;5032680;28;20175;-73
2023/09/01 00:44:13;;;;;;;9.02;4.50;;;13.20;99.90;;;;;;5030591;28;20631;-72
2023/09/01 00:46:43;;;;;;;4.88;4.00;;;13.20;99.90;;;;;;5031661;28;20602;-71
2023/09/01 00:49:11;;;;;;;9.10;4.32;;;13.20;99.90;;;;;;5031076;28;20215;-72
2023/09/01 00:51:37;;;;;;;11.00;4.35;;;13.20;99.90;;;;;;5012019;28;20199;-70
2023/09/01 00:54:04;;;;;;;8.80;4.50;;;13.20;99.90;;;;;;5021370;28;20208;-72
2023/09/01 00:56:30;;;;;;;8.63;3.85;;;13.10;99.90;;;;;;5031665;28;20236;-71
2023/09/01 00:58:56;;;;;;;10.02;4.20;;;13.10;99.90;;;;;;5026325;28;20279;-71
2023/09/01 01:01:22;;;;;;;12.00;4.68;;;13.00;99.90;;;;;;5032130;28;20177;-72
2023/09/01 01:03:51;;;;;;;7.25;4.40;;;13.00;99.90;;;;;;5030653;28;20232;-73
2023/09/01 01:06:31;;;;;;;9.00;4.55;;;13.00;99.90;;;;;;5015193;28;20184;-72
2023/09/01 01:09:09;;;;;;;11.05;4.88;;;12.90;99.90;;;;;;5030980;28;20225;-72
2023/09/01 01:11:54;;;;;;;8.20;4.78;;;12.90;99.90;;;;;;5029642;28;20241;-73
2023/09/01 01:14:27;;;;;;;7.97;4.45;;;12.90;99.90;;;;;;5008043;28;20274;-73
2023/09/01 01:16:55;;;;;;;6.85;4.40;;;12.90;99.90;;;;;;5031242;28;20274;-73
2023/09/01 01:19:50;;;;;;;9.38;4.25;;;12.80;99.90;;;;;;5028253;28;20219;-72
2023/09/01 01:22:38;;;;;;;10.57;4.45;;;12.80;99.90;;;;;;5036606;28;20180;-74
2023/09/01 01:25:08;;;;;;;8.85;4.15;;;12.80;99.90;;;;;;5030837;28;20640;-72
2023/09/01 01:27:34;;;;;;;7.57;4.18;;;12.80;99.90;;;;;;5005145;28;20543;-72
2023/09/01 01:30:00;;;;;;;11.07;4.70;;;12.80;99.90;;;;;;5023877;28;20184;-73
2023/09/01 01:32:27;;;;;;;9.68;4.07;;;12.70;99.90;;;;;;5029617;28;20672;-72
2023/09/01 01:35:04;;;;;;;11.48;4.40;;;12.70;99.90;;;;;;5024700;28;20698;-71
2023/09/01 01:37:40;;;;;;;8.30;5.22;;;12.70;99.90;;;;;;5029351;28;20183;-73
2023/09/01 01:40:08;;;;;;;10.30;5.10;;;12.70;99.90;;;;;;5030322;28;20663;-73
2023/09/01 01:42:36;;;;;;;12.38;5.20;;;12.70;99.90;;;;;;5028754;28;20185;-71
2023/09/01 01:45:04;;;;;;;11.70;4.97;;;12.70;99.90;;;;;;5014412;28;20184;-71
2023/09/01 01:47:32;;;;;;;15.88;7.65;;;12.70;99.90;;;;;;5028737;28;20185;-72
2023/09/01 01:49:58;;;;;;;12.55;5.60;;;12.70;99.90;;;;;;5014040;28;20217;-72
2023/09/01 01:52:24;;;;;;;13.13;5.15;;;12.70;99.90;;;;;;5030201;28;20708;-72
2023/09/01 01:54:50;;;;;;;11.07;5.65;;;12.60;99.90;;;;;;5042156;28;20223;-72
2023/09/01 01:57:17;;;;;;;10.82;5.90;;;12.60;99.90;;;;;;5012576;28;20637;-71
2023/09/01 01:59:43;;;;;;;10.25;5.80;;;12.60;99.90;;;;;;5030270;28;20271;-71
2023/09/01 02:02:09;;;;;;;11.88;6.05;;;12.60;99.90;;;;;;5029905;28;20195;-70
2023/09/01 02:04:35;;;;;;;10.25;6.53;;;12.60;99.90;;;;;;5025691;28;20192;-71
2023/09/01 02:07:05;;;;;;;14.20;7.63;;;12.60;99.90;;;;;;5029990;28;20294;-72
2023/09/01 02:09:32;;;;;;;14.77;7.15;;;12.60;99.90;;;;;;5028807;28;20209;-71
2023/09/01 02:11:58;;;;;;;11.45;6.68;;;12.60;99.90;;;;;;5031384;28;20275;-71
2023/09/01 02:14:24;;;;;;;13.55;6.85;;;12.60;99.90;;;;;;5025494;28;20306;-71
2023/09/01 02:16:50;;;;;;;9.35;6.25;;;12.50;99.90;;;;;;5059668;28;20690;-71
2023/09/01 02:19:16;;;;;;;11.43;5.70;;;12.50;99.90;;;;;;5046364;28;20195;-71
2023/09/01 02:21:44;;;;;;;11.88;5.32;;;12.50;99.90;;;;;;5029717;28;20179;-71
2023/09/01 02:24:11;;;;;;;11.32;5.80;;;12.50;99.90;;;;;;5029475;28;20222;-73
2023/09/01 02:26:36;;;;;;;13.13;5.15;;;12.50;99.90;;;;;;5029752;28;20625;-73
2023/09/01 02:29:05;;;;;;;11.52;5.13;;;12.50;99.90;;;;;;5022717;28;20203;-73
2023/09/01 02:31:31;;;;;;;9.38;5.28;;;12.50;99.90;;;;;;5029022;28;20188;-74
2023/09/01 02:33:57;;;;;;;9.73;5.40;;;12.50;99.90;;;;;;5023668;28;20231;-72
2023/09/01 02:36:34;;;;;;;16.33;6.35;;;12.50;99.90;;;;;;5062202;28;20231;-72
2023/09/01 02:39:01;;;;;;;14.38;7.60;;;12.50;99.90;;;;;;5025433;28;20190;-72
2023/09/01 02:41:28;;;;;;;13.27;6.07;;;12.40;99.90;;;;;;5030336;28;20192;-72
2023/09/01 02:43:54;;;;;;;9.38;5.55;;;12.40;99.90;;;;;;5042403;28;20196;-72
2023/09/01 02:46:20;;;;;;;10.52;5.40;;;12.40;99.90;;;;;;5028979;28;20767;-72
2023/09/01 02:48:47;;;;;;;8.70;4.95;;;12.40;99.90;;;;;;5024988;28;20557;-71
2023/09/01 02:51:13;;;;;;;10.27;4.85;;;12.40;99.90;;;;;;5031204;28;20187;-73
2023/09/01 02:53:39;;;;;;;10.20;4.97;;;12.40;99.90;;;;;;5026280;28;20688;-73
2023/09/01 02:56:05;;;;;;;13.27;5.85;;;12.40;99.90;;;;;;5029564;28;20230;-72
2023/09/01 02:58:31;;;;;;;10.88;5.03;;;12.40;99.90;;;;;;5027452;28;20191;-70
2023/09/01 03:00:57;;;;;;;8.77;5.47;;;12.40;99.90;;;;;;5029483;28;20180;-71
2023/09/01 03:03:25;;;;;;;16.63;10.05;;;12.40;99.90;;;;;;5029977;28;20191;-72
2023/09/01 03:05:51;;;;;;;13.35;7.07;;;12.40;99.90;;;;;;5063317;28;20546;-71
2023/09/01 03:08:17;;;;;;;13.45;5.70;;;12.40;99.90;;;;;;5026868;28;20181;-71
2023/09/01 03:10:44;;;;;;;8.93;5.28;;;12.30;99.90;;;;;;5059449;28;20230;-70
2023/09/01 03:13:10;;;;;;;10.95;5.18;;;12.30;99.90;;;;;;5029342;28;20203;-73
2023/09/01 03:15:36;;;;;;;9.82;4.75;;;12.30;99.90;;;;;;5029730;28;20294;-71
2023/09/01 03:18:03;;;;;;;9.05;5.07;;;12.30;99.90;;;;;;5029840;28;20279;-72
2023/09/01 03:20:29;;;;;;;15.65;5.80;;;12.30;99.90;;;;;;5033643;28;20204;-72
2023/09/01 03:22:55;;;;;;;9.20;5.43;;;12.40;99.90;;;;;;5031149;28;20185;-71
2023/09/01 03:25:21;;;;;;;8.40;4.93;;;12.30;99.90;;;;;;5034175;28;20212;-73
2023/09/01 03:27:47;;;;;;;12.25;5.13;;;12.30;99.90;;;;;;5031225;28;20361;-71
2023/09/01 03:30:13;;;;;;;11.70;4.93;;;12.30;99.90;;;;;;5032997;28;20811;-72
2023/09/01 03:32:41;;;;;;;8.85;4.38;;;12.30;99.90;;;;;;5013862;28;20185;-70
2023/09/01 03:35:08;;;;;;;7.13;4.57;;;12.30;99.90;;;;;;5034117;28;20220;-72
2023/09/01 03:37:34;;;;;;;10.38;5.05;;;12.30;99.90;;;;;;5032259;28;20196;-72
2023/09/01 03:40:00;;;;;;;8.88;4.50;;;12.30;99.90;;;;;;5016533;28;20198;-70
2023/09/01 03:42:26;;;;;;;8.45;4.40;;;12.40;99.90;;;;;;5031077;28;20188;-71
2023/09/01 03:44:55;;;;;;;10.20;4.82;;;12.30;99.90;;;;;;5022522;28;20188;-70
2023/09/01 03:47:21;;;;;;;11.52;5.38;;;12.30;99.90;;;;;;5019922;28;20193;-73
2023/09/01 03:49:47;;;;;;;8.48;5.30;;;12.30;99.90;;;;;;5016423;28;20184;-71
2023/09/01 03:52:13;;;;;;;9.68;4.93;;;12.30;99.90;;;;;;5032246;28;20543;-72
2023/09/01 03:54:38;;;;;;;13.82;5.10;;;12.30;99.90;;;;;;5027120;28;20302;-71
2023/09/01 03:57:04;;;;;;;7.75;4.90;;;12.30;99.90;;;;;;5032657;28;20232;-70
2023/09/01 03:59:30;;;;;;;8.05;5.32;;;12.30;99.90;;;;;;5016508;28;20188;-71
2023/09/01 04:01:56;;;;;;;9.18;5.00;;;12.30;99.90;;;;;;5035617;28;20192;-73
2023/09/01 04:04:23;;;;;;;9.93;4.70;;;12.30;99.90;;;;;;5034072;28;20215;-71
2023/09/01 04:06:50;;;;;;;7.68;4.15;;;12.30;99.90;;;;;;5034055;28;20773;-71
2023/09/01 04:09:16;;;;;;;8.05;4.13;;;12.30;99.90;;;;;;5035440;28;20253;-72
2023/09/01 04:11:41;;;;;;;11.93;4.40;;;12.20;99.90;;;;;;5036286;28;20200;-73
2023/09/01 04:14:09;;;;;;;9.25;4.32;;;12.20;99.90;;;;;;5035291;28;20250;-70
2023/09/01 04:16:35;;;;;;;10.38;4.65;;;12.20;99.90;;;;;;5035637;28;20837;-72
2023/09/01 04:19:01;;;;;;;9.07;4.30;;;12.20;99.90;;;;;;5033218;28;20200;-70
2023/09/01 04:21:27;;;;;;;10.88;4.60;;;12.20;99.90;;;;;;5031943;28;20204;-70
2023/09/01 04:23:53;;;;;;;8.68;4.40;;;12.20;99.90;;;;;;5048879;28;20256;-71
2023/09/01 04:26:19;;;;;;;9.65;4.70;;;12.20;99.90;;;;;;5031783;28;21637;-71
2023/09/01 04:28:45;;;;;;;8.73;4.70;;;12.20;99.90;;;;;;5028105;28;20234;-70
2023/09/01 04:31:32;;;;;;;9.55;4.47;;;12.20;99.90;;;;;;5058033;28;20199;-71
2023/09/01 04:34:03;;;;;;;14.02;4.80;;;12.20;99.90;;;;;;5012142;28;20598;-72
2023/09/01 04:36:30;;;;;;;13.45;5.25;;;12.20;99.90;;;;;;5031946;28;20188;-74
2023/09/01 04:38:56;;;;;;;10.93;4.88;;;12.20;99.90;;;;;;5028423;28;20196;-72
2023/09/01 04:41:23;;;;;;;8.95;5.07;;;12.10;99.90;;;;;;5031084;28;20215;-71
2023/09/01 04:43:48;;;;;;;9.48;5.30;;;12.10;99.90;;;;;;5028245;28;20220;-72
2023/09/01 04:46:14;;;;;;;9.40;5.47;;;12.10;99.90;;;;;;5031854;28;20191;-72
2023/09/01 04:48:40;;;;;;;8.93;4.80;;;12.10;99.90;;;;;;5026796;28;20550;-73
2023/09/01 04:51:07;;;;;;;10.00;5.30;;;12.10;99.90;;;;;;5031700;28;20222;-70
2023/09/01 04:53:33;;;;;;;9.88;5.45;;;12.10;99.90;;;;;;5027704;28;20199;-74
2023/09/01 04:55:59;;;;;;;10.25;5.50;;;12.10;99.90;;;;;;5031074;28;20263;-71
2023/09/01 04:58:25;;;;;;;10.50;5.57;;;12.10;99.90;;;;;;5012775;28;20238;-72
2023/09/01 05:00:52;;;;;;;11.77;5.82;;;12.10;99.90;;;;;;5030502;28;20212;-71
2023/09/01 05:03:19;;;;;;;10.70;5.43;;;12.10;99.90;;;;;;5027867;28;20224;-71
2023/09/01 05:05:47;;;;;;;11.07;6.00;;;12.10;99.90;;;;;;5029893;28;20577;-70
2023/09/01 05:08:13;;;;;;;8.90;5.68;;;12.10;99.90;;;;;;5026844;28;20195;-73
2023/09/01 05:10:39;;;;;;;10.68;5.82;;;12.20;99.90;;;;;;5027862;28;20180;-73
2023/09/01 05:13:05;;;;;;;12.52;6.43;;;12.20;99.90;;;;;;5025826;28;20527;-73
2023/09/01 05:15:31;;;;;;;9.48;5.75;;;12.20;99.90;;;;;;5030662;28;20224;-73
2023/09/01 05:17:57;;;;;;;11.23;6.07;;;12.20;99.90;;;;;;5028856;28;20192;-73
2023/09/01 05:20:24;;;;;;;10.73;6.07;;;12.20;99.90;;;;;;5029761;28;20175;-73
2023/09/01 05:22:50;;;;;;;9.50;5.38;;;12.30;99.90;;;;;;5026622;28;20191;-73
2023/09/01 05:25:17;;;;;;;10.65;5.60;;;12.30;99.90;;;;;;5012347;28;20194;-73
2023/09/01 05:27:44;;;;;;;13.40;6.00;;;12.30;99.90;;;;;;5024853;28;20192;-73
2023/09/01 05:30:12;;;;;;;11.23;6.32;;;12.30;99.90;;;;;;5015074;28;20199;-71
2023/09/01 05:32:38;;;;;;;11.60;5.97;;;12.40;99.90;;;;;;5010835;28;20242;-72
2023/09/01 05:35:05;;;;;;;7.72;5.47;;;12.40;99.90;;;;;;5050918;28;20270;-71
2023/09/01 05:37:31;;;;;;;12.75;5.65;;;12.50;99.90;;;;;;5028085;28;20226;-73
2023/09/01 05:39:57;;;;;;;12.55;6.10;;;12.50;99.90;;;;;;5027510;28;20215;-73
2023/09/01 05:42:23;;;;;;;10.68;5.53;;;12.50;99.90;;;;;;5029598;28;20601;-70
2023/09/01 05:44:50;;;;;;;9.98;5.35;;;12.60;99.90;;;;;;5030095;28;20200;-70
2023/09/01 05:47:15;;;;;;;9.23;5.25;;;12.60;99.90;;;;;;5030651;28;20202;-72
2023/09/01 05:49:43;;;;;;;10.50;5.30;;;12.70;99.90;;;;;;5028317;28;20188;-72
2023/09/01 05:52:09;;;;;;;10.02;4.75;;;12.70;99.90;;;;;;5029976;28;20267;-71
2023/09/01 05:54:34;;;;;;;7.68;4.40;;;12.80;99.90;;;;;;5025355;28;20281;-70
2023/09/01 05:57:01;;;;;;;8.35;4.57;;;12.90;99.90;;;;;;5046169;28;20666;-71
2023/09/01 05:59:27;;;;;;;14.88;4.72;;;13.00;99.90;;;;;;5028529;28;20215;-71
2023/09/01 06:01:53;;;;;;;13.00;4.90;;;13.10;99.90;;;;;;5028070;28;20230;-70
2023/09/01 06:04:19;;;;;;;12.02;5.03;;;13.10;99.90;;;;;;5028510;28;20381;-71
2023/09/01 06:06:46;;;;;;;7.45;4.50;;;13.30;99.90;;;;;;5025929;28;20202;-72
2023/09/01 06:09:12;;;;;;;6.85;4.35;;;13.30;99.90;;;;;;5029036;28;20271;-72
2023/09/01 06:11:38;;;;;;;8.88;4.75;;;13.40;99.90;;;;;;5030208;28;20283;-70
2023/09/01 06:14:05;;;;;;;9.05;4.95;;;13.50;99.90;;;;;;5025286;28;20686;-69
2023/09/01 06:16:31;;;;;;;8.05;4.80;;;13.60;99.90;;;;;;5030892;28;20187;-72
2023/09/01 06:19:03;;;;;;;9.70;4.60;;;13.70;99.90;;;;;;5027367;28;20206;-69
2023/09/01 06:21:30;;;;;;;8.60;4.63;;;13.70;99.90;;;;;;5029763;28;20184;-69
2023/09/01 06:23:56;;;;;;;10.02;5.20;;;13.80;99.90;;;;;;5028492;28;20265;-69
2023/09/01 06:26:22;;;;;;;8.70;5.18;;;13.90;99.90;;;;;;5030982;28;20188;-70
2023/09/01 06:28:49;;;;;;;10.07;3.95;;;14.00;99.90;;;;;;5029227;28;20659;-71
2023/09/01 06:31:16;;;;;;;8.95;4.00;;;14.00;99.90;;;;;;5060373;28;20212;-71
2023/09/01 06:33:46;;;;;;;5.68;3.58;;;14.10;99.90;;;;;;5025851;28;20223;-71
2023/09/01 06:36:17;;;;;;;9.93;4.05;;;14.20;99.90;;;;;;5029776;28;20602;-71
2023/09/01 06:38:43;;;;;;;9.18;3.47;;;14.30;99.90;;;;;;5026326;28;20188;-68
2023/09/01 06:41:09;;;;;;;9.45;4.50;;;14.40;99.90;;;;;;5029462;28;20238;-69
2023/09/01 06:43:36;;;;;;;12.18;4.38;;;14.40;99.90;;;;;;5024915;28;20235;-70
2023/09/01 06:46:02;;;;;;;8.27;3.67;;;14.50;99.90;;;;;;5030469;28;20188;-70
2023/09/01 06:48:30;;;;;;;9.32;4.20;;;14.60;99.90;;;;;;5027675;28;20191;-70
2023/09/01 06:50:59;;;;;;;7.85;3.83;;;14.60;99.90;;;;;;5029823;28;20278;-70
2023/09/01 06:53:25;;;;;;;9.68;4.05;;;14.70;99.90;;;;;;5025963;28;20683;-70
2023/09/01 06:55:51;;;;;;;9.32;3.55;;;14.80;99.90;;;;;;5065044;28;20248;-69
2023/09/01 06:58:17;;;;;;;7.93;3.50;;;14.80;99.90;;;;;;5028457;28;20574;-70
2023/09/01 07:00:43;;;;;;;12.43;4.43;;;14.90;99.90;;;;;;5034509;28;20215;-69
2023/09/01 07:03:09;;;;;;;8.82;2.97;;;15.00;99.90;;;;;;5031317;28;20188;-69
2023/09/01 07:05:35;;;;;;;7.70;3.25;;;15.10;99.90;;;;;;5031866;28;20188;-68
2023/09/01 07:08:01;;;;;;;7.00;2.88;;;15.10;99.90;;;;;;5029334;28;20180;-71
2023/09/01 07:10:27;;;;;;;7.45;2.80;;;15.10;99.90;;;;;;5028732;28;20196;-70
2023/09/01 07:12:53;;;;;;;4.88;2.53;;;15.20;99.90;;;;;;5031124;28;20188;-71
2023/09/01 07:15:19;;;;;;;7.63;2.70;;;15.30;99.90;;;;;;5061246;28;20212;-70
2023/09/01 07:17:45;;;;;;;8.68;2.53;;;15.30;99.90;;;;;;5031026;28;20193;-69
2023/09/01 07:20:12;;;;;;;7.57;2.75;;;15.40;99.90;;;;;;5030993;28;20194;-70
2023/09/01 07:22:38;;;;;;;9.60;2.95;;;15.40;99.90;;;;;;5032541;28;20184;-70
2023/09/01 07:25:09;;;;;;;8.20;2.30;;;15.40;99.90;;;;;;5023529;28;20190;-68
2023/09/01 07:27:35;;;;;;;9.05;3.10;;;15.50;99.90;;;;;;5032078;28;20537;-69
2023/09/01 07:30:03;;;;;;;4.53;2.30;;;15.50;99.90;;;;;;5032220;28;20184;-69
2023/09/01 07:32:31;;;;;;;13.25;3.70;;;15.50;99.90;;;;;;5031512;28;20226;-68
2023/09/01 07:34:58;;;;;;;8.27;2.60;;;15.60;99.90;;;;;;5061894;28;20741;-69
2023/09/01 07:37:25;;;;;;;6.88;2.67;;;15.60;99.90;;;;;;5035890;28;20192;-70
2023/09/01 07:39:51;;;;;;;6.40;2.72;;;15.70;99.90;;;;;;5030779;28;20271;-68
2023/09/01 07:42:17;;;;;;;7.43;2.38;;;15.70;99.90;;;;;;5043044;28;20264;-70
2023/09/01 07:44:43;;;;;;;6.07;2.50;;;15.80;99.90;;;;;;5017153;28;20197;-68
2023/09/01 07:47:09;;;;;;;9.45;2.03;;;15.80;99.90;;;;;;5034165;28;20187;-71
2023/09/01 07:49:36;;;;;;;7.05;2.78;;;15.90;99.90;;;;;;5025744;28;20245;-70
2023/09/01 07:52:02;;;;;;;5.95;2.40;;;15.90;99.90;;;;;;5027188;28;20427;-70
2023/09/01 07:54:29;;;;;;;6.97;2.38;;;16.00;99.90;;;;;;5027319;28;20208;-70
2023/09/01 07:56:55;;;;;;;7.63;2.30;;;16.00;99.90;;;;;;5030066;28;21491;-70
2023/09/01 07:59:21;;;;;;;7.75;2.40;;;16.10;99.90;;;;;;5060302;28;20195;-69
2023/09/01 08:01:47;;;;;;;7.68;2.33;;;16.20;99.90;;;;;;5032379;28;20594;-71
2023/09/01 08:04:13;;;;;;;6.07;2.17;;;16.20;99.90;;;;;;5027841;28;20237;-69
2023/09/01 08:06:39;;;;;;;6.47;2.85;;;16.30;99.90;;;;;;5031053;28;20192;-69
2023/09/01 08:09:05;;;;;;;4.82;2.45;;;16.40;99.90;;;;;;5021803;28;20208;-70
2023/09/01 08:11:31;;;;;;;8.35;2.40;;;16.40;99.90;;;;;;5029704;28;20180;-68
2023/09/01 08:13:57;;;;;;;7.20;2.20;;;16.50;99.90;;;;;;5030609;28;20565;-71
2023/09/01 08:16:23;;;;;;;10.50;2.10;;;16.60;99.90;;;;;;5032459;28;20184;-71
2023/09/01 08:18:49;;;;;;;3.85;1.60;;;16.70;99.90;;;;;;5027330;28;20197;-69
2023/09/01 08:21:15;;;;;;;6.32;2.20;;;16.80;99.90;;;;;;5030115;28;20179;-69
2023/09/01 08:23:41;;;;;;;3.60;1.75;;;16.90;99.90;;;;;;5028693;28;20200;-68
2023/09/01 08:26:07;;;;;;;6.07;2.15;;;16.90;99.90;;;;;;5032096;28;20195;-69
2023/09/01 08:28:33;;;;;;;6.15;2.03;;;17.00;99.90;;;;;;5028140;28;20241;-69
2023/09/01 08:31:03;;;;;;;7.22;1.90;;;17.10;99.90;;;;;;5032504;28;20180;-69
2023/09/01 08:33:29;;;;;;;7.60;2.08;;;17.20;99.90;;;;;;5029946;28;20582;-70
2023/09/01 08:35:55;;;;;;;5.97;1.60;;;17.30;99.90;;;;;;5032978;28;20226;-70
2023/09/01 08:38:22;;;;;;;8.00;2.25;;;17.40;99.90;;;;;;5032487;28;20199;-69
2023/09/01 08:40:49;;;;;;;7.35;3.42;;;17.50;99.90;;;;;;5030998;28;20180;-69
2023/09/01 08:43:18;;;;;;;8.32;2.30;;;17.60;99.90;;;;;;5039459;28;20191;-68
2023/09/01 08:45:45;;;;;;;4.50;2.08;;;17.70;99.90;;;;;;5032817;28;20663;-71
2023/09/01 08:48:11;;;;;;;5.35;2.30;;;17.80;99.90;;;;;;5027141;28;20185;-69
2023/09/01 08:50:37;;;;;;;7.03;2.20;;;17.90;99.90;;;;;;5030096;28;20190;-69
2023/09/01 08:53:04;;;;;;;6.18;1.80;;;17.90;99.90;;;;;;5025731;28;20290;-69
2023/09/01 08:55:30;;;;;;;6.50;2.65;;;18.00;99.90;;;;;;5029256;28;20232;-69
2023/09/01 08:57:56;;;;;;;5.90;2.22;;;18.10;99.90;;;;;;5028448;28;21042;-69
2023/09/01 09:00:22;;;;;;;9.75;2.60;;;18.20;99.90;;;;;;5031499;28;20196;-70
2023/09/01 09:02:48;;;;;;;5.07;1.88;;;18.30;99.90;;;;;;5027271;28;20624;-67
2023/09/01 09:05:15;;;;;;;11.55;2.53;;;18.40;99.90;;;;;;5028256;28;20188;-67
2023/09/01 09:07:41;;;;;;;5.78;1.90;;;18.50;99.90;;;;;;5031403;28;20184;-68
2023/09/01 09:10:08;;;;;;;5.60;1.90;;;18.60;99.90;;;;;;5024287;28;20183;-68
2023/09/01 09:12:36;;;;;;;10.68;2.17;;;18.70;99.90;;;;;;5027626;28;20223;-68
2023/09/01 09:15:03;;;;;;;8.10;2.25;;;18.70;99.90;;;;;;5027374;28;20295;-69
2023/09/01 09:17:44;;;;;;;3.85;1.83;;;18.80;99.90;;;;;;5029794;28;20183;-68
2023/09/01 09:20:11;;;;;;;8.85;2.40;;;18.80;99.90;;;;;;5030621;28;20183;-69
2023/09/01 09:22:53;;;;;;;4.68;2.08;;;18.80;99.90;;;;;;5028316;28;20219;-68
2023/09/01 09:25:35;;;;;;;7.00;3.22;;;18.80;99.90;;;;;;5027541;28;20195;-68
2023/09/01 09:28:15;;;;;;;6.28;2.50;;;18.90;99.90;;;;;;5026802;28;20180;-71
2023/09/01 09:30:51;;;;;;;4.82;2.10;;;18.90;99.90;;;;;;5024800;28;20721;-68
2023/09/01 09:33:29;;;;;;;4.13;2.13;;;18.90;99.90;;;;;;5023404;28;20171;-69
2023/09/01 09:35:55;;;;;;;4.47;2.17;;;18.90;99.90;;;;;;5024646;28;20216;-68
2023/09/01 09:38:21;;;;;;;6.25;2.50;;;19.00;99.90;;;;;;5028142;28;20195;-69
2023/09/01 09:41:00;;;;;;;4.05;2.20;;;19.00;99.90;;;;;;5026863;28;20261;-64
2023/09/01 09:43:30;;;;;;;10.35;2.95;;;19.00;99.90;;;;;;5029292;28;20187;-67
2023/09/01 09:45:56;;;;;;;4.20;2.10;;;19.00;99.90;;;;;;5029548;28;20988;-67
2023/09/01 09:48:23;;;;;;;4.88;2.35;;;19.10;99.90;;;;;;5025361;28;20216;-67
2023/09/01 09:50:51;;;;;;;6.47;2.20;;;19.20;99.90;;;;;;5028105;28;20192;-67
2023/09/01 09:53:25;;;;;;;4.25;2.60;;;19.30;99.90;;;;;;5021976;28;20189;-68
2023/09/01 09:55:52;;;;;;;4.82;2.13;;;19.30;99.90;;;;;;5029591;28;20306;-69
2023/09/01 09:58:33;;;;;;;6.85;2.40;;;19.30;99.90;;;;;;5023954;28;20224;-69
2023/09/01 10:01:02;;;;;;;7.35;2.83;;;19.40;99.90;;;;;;5030535;28;20176;-69
2023/09/01 10:03:29;;;;;;;7.40;2.40;;;19.40;99.90;;;;;;5024290;28;20196;-69
2023/09/01 10:05:57;;;;;;;5.88;2.10;;;19.40;99.90;;;;;;5029785;28;20198;-67
2023/09/01 10:08:24;;;;;;;3.70;1.73;;;19.50;99.90;;;;;;5025064;28;20263;-68
2023/09/01 10:10:50;;;;;;;5.57;1.67;;;19.50;99.90;;;;;;5027147;28;20191;-68
2023/09/01 10:13:17;;;;;;;6.80;1.83;;;19.40;99.90;;;;;;5022506;28;20188;-68
2023/09/01 10:15:45;;;;;;;4.63;1.88;;;19.40;99.90;;;;;;5027931;28;20211;-70
2023/09/01 10:18:11;;;;;;;5.32;1.92;;;19.30;99.90;;;;;;5026940;28;20188;-68
2023/09/01 10:20:40;;;;;;;5.85;2.30;;;19.30;99.90;;;;;;5029587;28;20196;-68
2023/09/01 10:23:09;;;;;;;6.13;2.25;;;19.20;99.90;;;;;;5026707;28;20184;-68
2023/09/01 10:25:35;;;;;;;6.38;2.00;;;19.20;99.90;;;;;;5030477;28;20249;-68
2023/09/01 10:28:03;;;;;;;6.38;2.92;;;19.20;99.90;;;;;;5032391;28;20184;-67
2023/09/01 10:30:43;;;;;;;8.50;2.67;;;19.20;99.90;;;;;;5026447;28;20250;-67
2023/09/01 10:33:11;;;;;;;12.40;2.50;;;19.30;99.90;;;;;;5027895;28;20261;-68
2023/09/01 10:35:43;;;;;;;4.28;2.40;;;19.50;99.90;;;;;;5031150;28;20257;-68
2023/09/01 10:38:22;;;;;;;4.43;1.90;;;19.60;99.90;;;;;;5029949;28;20180;-68
2023/09/01 10:40:55;;;;;;;4.13;1.95;;;19.60;99.90;;;;;;5030888;28;20635;-68
2023/09/01 10:43:37;;;;;;;6.63;1.88;;;19.70;99.90;;;;;;5028696;28;20326;-69
2023/09/01 10:46:14;;;;;;;5.95;2.15;;;19.80;99.90;;;;;;5033675;28;20187;-69
2023/09/01 10:48:50;;;;;;;3.78;1.80;;;19.80;99.90;;;;;;5027931;28;20211;-69
2023/09/01 10:51:21;;;;;;;4.85;2.00;;;19.80;99.90;;;;;;5054404;28;20233;-68
2023/09/01 10:54:00;;;;;;;6.45;2.17;;;19.90;99.90;;;;;;5027104;28;20184;-67
2023/09/01 10:56:30;;;;;;;7.20;2.83;;;19.90;99.90;;;;;;5033021;28;20660;-68
2023/09/01 10:58:57;;;;;;;4.55;2.00;;;20.00;99.90;;;;;;5028115;28;20267;-69
2023/09/01 11:01:24;;;;;;;3.70;2.10;;;20.10;99.90;;;;;;5034764;28;20554;-69
2023/09/01 11:03:50;;;;;;;3.58;1.88;;;20.20;99.90;;;;;;5027472;28;20229;-68
2023/09/01 11:06:17;;;;;;;5.65;2.03;;;20.20;99.90;;;;;;5034331;28;20305;-71
2023/09/01 11:09:12;;;;;;;7.07;2.40;;;20.30;99.90;;;;;;5028729;28;20192;-68
2023/09/01 11:11:37;;;;;;;6.70;2.10;;;20.40;99.90;;;;;;5025689;28;20216;-68
2023/09/01 11:14:06;;;;;;;4.40;1.95;;;20.50;99.90;;;;;;5041855;28;20196;-69
2023/09/01 11:16:32;;;;;;;6.65;2.10;;;20.50;99.90;;;;;;5030131;28;20191;-68
2023/09/01 11:19:02;;;;;;;3.63;1.88;;;20.60;99.90;;;;;;5031218;28;20191;-68
2023/09/01 11:21:29;;;;;;;7.35;2.47;;;20.70;99.90;;;;;;5032826;28;20187;-68
2023/09/01 11:24:00;;;;;;;5.10;2.22;;;20.80;99.90;;;;;;5031982;28;20664;-69
2023/09/01 11:26:26;;;;;;;8.50;2.50;;;20.80;99.90;;;;;;5015024;28;20200;-69
2023/09/01 11:28:53;;;;;;;5.68;2.60;;;20.80;99.90;;;;;;5028464;28;20184;-68
2023/09/01 11:31:19;;;;;;;8.70;2.70;;;20.80;99.90;;;;;;5033847;28;20184;-70
2023/09/01 11:33:53;;;;;;;5.72;2.60;;;20.80;99.90;;;;;;5031419;28;20207;-68
2023/09/01 11:36:20;;;;;;;6.10;2.65;;;20.80;99.90;;;;;;5033811;28;20200;-68
2023/09/01 11:38:47;;;;;;;6.50;2.38;;;20.80;99.90;;;;;;5028000;28;20202;-68
2023/09/01 11:41:14;;;;;;;4.47;2.33;;;20.80;99.90;;;;;;5028405;28;20195;-69
2023/09/01 11:43:41;;;;;;;6.30;2.20;;;20.80;99.90;;;;;;5027265;28;20199;-69
2023/09/01 11:46:07;;;;;;;7.28;3.60;;;20.80;99.90;;;;;;5030106;28;20181;-69
2023/09/01 11:48:34;;;;;;;5.65;2.97;;;20.90;99.90;;;;;;5026352;28;20192;-68
2023/09/01 11:51:00;;;;;;;5.97;2.72;;;20.90;99.90;;;;;;5039557;28;20209;-68
2023/09/01 11:53:31;;;;;;;6.15;3.25;;;21.00;99.90;;;;;;5037707;28;20184;-68
2023/09/01 11:56:03;;;;;;;6.53;2.80;;;21.10;99.90;;;;;;5033278;28;20211;-68
2023/09/01 11:58:32;;;;;;;6.35;2.65;;;21.30;99.90;;;;;;5027509;28;20715;-68
2023/09/01 12:01:08;;;;;;;9.20;2.67;;;21.40;99.90;;;;;;5033009;28;20238;-68
2023/09/01 12:03:34;;;;;;;5.00;2.33;;;21.40;99.90;;;;;;5026398;28;20671;-68
2023/09/01 12:06:00;;;;;;;3.85;1.80;;;21.60;99.90;;;;;;5033392;28;20195;-69
2023/09/01 12:08:26;;;;;;;5.63;2.50;;;21.60;99.90;;;;;;5028393;28;20218;-68
2023/09/01 12:11:07;;;;;;;9.23;3.28;;;21.70;99.90;;;;;;5027281;28;20354;-69
2023/09/01 12:13:33;;;;;;;7.10;2.90;;;21.70;99.90;;;;;;5027585;28;20237;-69
2023/09/01 12:16:01;;;;;;;7.43;2.97;;;21.80;99.90;;;;;;5030485;28;20298;-69
2023/09/01 12:18:35;;;;;;;5.50;2.40;;;21.80;99.90;;;;;;5027458;28;20525;-70
2023/09/01 12:21:07;;;;;;;7.50;2.10;;;21.80;99.90;;;;;;5025207;28;20183;-69
2023/09/01 12:23:36;;;;;;;5.35;2.33;;;21.70;99.90;;;;;;5029152;28;20188;-69
2023/09/01 12:26:02;;;;;;;8.38;2.60;;;21.70;99.90;;;;;;5032301;28;20187;-69
2023/09/01 12:28:31;;;;;;;7.93;2.42;;;21.60;99.90;;;;;;5029400;28;20274;-69
2023/09/01 12:31:00;;;;;;;10.32;2.78;;;21.60;99.90;;;;;;5032763;28;20243;-69
2023/09/01 12:33:27;;;;;;;8.70;3.13;;;21.60;99.90;;;;;;5028759;28;20195;-69
2023/09/01 12:35:53;;;;;;;10.82;3.13;;;21.60;99.90;;;;;;5027241;28;20204;-69
2023/09/01 12:38:20;;;;;;;6.82;2.72;;;21.40;99.90;;;;;;5026971;28;20272;-69
2023/09/01 12:40:46;;;;;;;11.57;2.95;;;21.40;99.90;;;;;;5025442;28;20180;-69
2023/09/01 12:43:13;;;;;;;7.72;2.90;;;21.40;99.90;;;;;;5011556;28;20805;-69
2023/09/01 12:45:39;;;;;;;7.40;3.08;;;21.40;99.90;;;;;;5027952;28;20641;-70